sensor_id;sensor_type;location;lat;lon;timestamp;P1;durP1;ratioP1;P2;durP2;ratioP2
57105;SDS011;62662;56.788;23.942;2022-11-27T00:01:08;17.35;;;10.75;;
57105;SDS011;62662;56.788;23.942;2022-11-27T00:03:40;19.63;;;10.82;;
57105;SDS011;62662;56.788;23.942;2022-11-27T00:06:16;17.58;;;11.00;;
57105;SDS011;62662;56.788;23.942;2022-11-27T00:08:45;20.77;;;10.77;;
57105;SDS011;62662;56.788;23.942;2022-11-27T00:11:20;16.60;;;10.30;;
57105;SDS011;62662;56.788;23.942;2022-11-27T00:13:48;19.90;;;10.38;;
57105;SDS011;62662;56.788;23.942;2022-11-27T00:16:16;19.25;;;11.25;;
57105;SDS011;62662;56.788;23.942;2022-11-27T00:18:44;15.32;;;10.90;;
57105;SDS011;62662;56.788;23.942;2022-11-27T00:21:16;15.88;;;9.85;;
57105;SDS011;62662;56.788;23.942;2022-11-27T00:23:47;17.95;;;10.40;;
57105;SDS011;62662;56.788;23.942;2022-11-27T00:26:15;21.52;;;11.15;;
57105;SDS011;62662;56.788;23.942;2022-11-27T00:28:42;18.25;;;11.32;;
57105;SDS011;62662;56.788;23.942;2022-11-27T00:31:17;20.08;;;11.15;;
57105;SDS011;62662;56.788;23.942;2022-11-27T00:33:46;17.80;;;10.45;;
57105;SDS011;62662;56.788;23.942;2022-11-27T00:36:13;18.83;;;11.38;;
57105;SDS011;62662;56.788;23.942;2022-11-27T00:38:41;17.33;;;10.85;;
57105;SDS011;62662;56.788;23.942;2022-11-27T00:41:14;19.48;;;10.98;;
57105;SDS011;62662;56.788;23.942;2022-11-27T00:43:47;18.35;;;10.82;;
57105;SDS011;62662;56.788;23.942;2022-11-27T00:46:15;17.85;;;10.73;;
57105;SDS011;62662;56.788;23.942;2022-11-27T00:48:43;19.52;;;12.25;;
57105;SDS011;62662;56.788;23.942;2022-11-27T00:51:15;17.02;;;10.32;;
57105;SDS011;62662;56.788;23.942;2022-11-27T00:53:43;17.67;;;11.27;;
57105;SDS011;62662;56.788;23.942;2022-11-27T00:56:14;23.00;;;11.48;;
57105;SDS011;62662;56.788;23.942;2022-11-27T00:58:43;19.23;;;11.98;;
57105;SDS011;62662;56.788;23.942;2022-11-27T01:01:15;21.20;;;12.23;;
57105;SDS011;62662;56.788;23.942;2022-11-27T01:03:44;20.48;;;11.13;;
57105;SDS011;62662;56.788;23.942;2022-11-27T01:06:12;18.48;;;10.45;;
57105;SDS011;62662;56.788;23.942;2022-11-27T01:08:40;16.98;;;10.07;;
57105;SDS011;62662;56.788;23.942;2022-11-27T01:11:12;17.98;;;10.75;;
57105;SDS011;62662;56.788;23.942;2022-11-27T01:13:41;18.70;;;9.45;;
57105;SDS011;62662;56.788;23.942;2022-11-27T01:16:12;15.00;;;9.93;;
57105;SDS011;62662;56.788;23.942;2022-11-27T01:18:47;18.65;;;10.13;;
57105;SDS011;62662;56.788;23.942;2022-11-27T01:21:16;18.67;;;10.45;;
57105;SDS011;62662;56.788;23.942;2022-11-27T01:23:45;15.85;;;9.98;;
57105;SDS011;62662;56.788;23.942;2022-11-27T01:26:12;14.30;;;10.40;;
57105;SDS011;62662;56.788;23.942;2022-11-27T01:28:39;19.77;;;10.20;;
57105;SDS011;62662;56.788;23.942;2022-11-27T01:31:08;17.13;;;9.55;;
57105;SDS011;62662;56.788;23.942;2022-11-27T01:33:38;14.55;;;10.50;;
57105;SDS011;62662;56.788;23.942;2022-11-27T01:36:06;16.05;;;10.52;;
57105;SDS011;62662;56.788;23.942;2022-11-27T01:38:34;17.35;;;10.90;;
57105;SDS011;62662;56.788;23.942;2022-11-27T01:41:11;15.88;;;10.07;;
57105;SDS011;62662;56.788;23.942;2022-11-27T01:43:48;19.88;;;10.10;;
57105;SDS011;62662;56.788;23.942;2022-11-27T01:51:55;17.75;;;10.68;;
57105;SDS011;62662;56.788;23.942;2022-11-27T01:54:32;13.90;;;9.50;;
57105;SDS011;62662;56.788;23.942;2022-11-27T01:57:09;16.35;;;10.07;;
57105;SDS011;62662;56.788;23.942;2022-11-27T01:59:40;16.67;;;9.93;;
57105;SDS011;62662;56.788;23.942;2022-11-27T02:02:08;17.48;;;10.60;;
57105;SDS011;62662;56.788;23.942;2022-11-27T02:04:35;18.90;;;10.70;;
57105;SDS011;62662;56.788;23.942;2022-11-27T02:07:02;15.70;;;10.27;;
57105;SDS011;62662;56.788;23.942;2022-11-27T02:09:29;17.02;;;10.27;;
57105;SDS011;62662;56.788;23.942;2022-11-27T02:18:00;16.63;;;10.02;;
57105;SDS011;62662;56.788;23.942;2022-11-27T02:29:07;16.92;;;10.65;;
57105;SDS011;62662;56.788;23.942;2022-11-27T02:31:38;17.52;;;10.43;;
57105;SDS011;62662;56.788;23.942;2022-11-27T02:34:31;16.55;;;10.40;;
57105;SDS011;62662;56.788;23.942;2022-11-27T02:42:31;12.10;;;8.43;;
57105;SDS011;62662;56.788;23.942;2022-11-27T02:45:08;15.65;;;10.25;;
57105;SDS011;62662;56.788;23.942;2022-11-27T02:47:41;15.00;;;9.50;;
57105;SDS011;62662;56.788;23.942;2022-11-27T02:50:13;17.13;;;10.63;;
57105;SDS011;62662;56.788;23.942;2022-11-27T02:52:44;16.02;;;9.65;;
57105;SDS011;62662;56.788;23.942;2022-11-27T02:55:15;19.75;;;10.20;;
57105;SDS011;62662;56.788;23.942;2022-11-27T02:57:47;16.92;;;11.15;;
57105;SDS011;62662;56.788;23.942;2022-11-27T03:00:17;14.90;;;9.80;;
57105;SDS011;62662;56.788;23.942;2022-11-27T03:02:45;13.82;;;8.82;;
57105;SDS011;62662;56.788;23.942;2022-11-27T03:05:23;13.05;;;8.63;;
57105;SDS011;62662;56.788;23.942;2022-11-27T03:07:54;16.23;;;9.50;;
57105;SDS011;62662;56.788;23.942;2022-11-27T03:10:39;15.10;;;9.52;;
57105;SDS011;62662;56.788;23.942;2022-11-27T03:13:17;15.30;;;9.85;;
57105;SDS011;62662;56.788;23.942;2022-11-27T03:18:54;17.33;;;10.15;;
57105;SDS011;62662;56.788;23.942;2022-11-27T03:21:32;16.30;;;10.57;;
57105;SDS011;62662;56.788;23.942;2022-11-27T03:24:03;19.70;;;9.88;;
57105;SDS011;62662;56.788;23.942;2022-11-27T03:26:30;14.15;;;9.32;;
57105;SDS011;62662;56.788;23.942;2022-11-27T03:28:57;17.48;;;9.52;;
57105;SDS011;62662;56.788;23.942;2022-11-27T03:31:26;16.58;;;9.32;;
57105;SDS011;62662;56.788;23.942;2022-11-27T03:33:53;14.48;;;9.43;;
57105;SDS011;62662;56.788;23.942;2022-11-27T03:36:20;16.60;;;10.02;;
57105;SDS011;62662;56.788;23.942;2022-11-27T03:38:48;13.65;;;8.45;;
57105;SDS011;62662;56.788;23.942;2022-11-27T03:55:26;16.13;;;9.13;;
57105;SDS011;62662;56.788;23.942;2022-11-27T04:00:34;15.02;;;9.60;;
57105;SDS011;62662;56.788;23.942;2022-11-27T04:03:03;18.67;;;9.93;;
57105;SDS011;62662;56.788;23.942;2022-11-27T04:05:33;15.82;;;9.15;;
57105;SDS011;62662;56.788;23.942;2022-11-27T04:08:00;15.93;;;10.07;;
57105;SDS011;62662;56.788;23.942;2022-11-27T04:10:27;15.07;;;9.43;;
57105;SDS011;62662;56.788;23.942;2022-11-27T04:12:54;15.82;;;9.05;;
57105;SDS011;62662;56.788;23.942;2022-11-27T04:15:21;16.40;;;10.35;;
57105;SDS011;62662;56.788;23.942;2022-11-27T04:17:48;17.13;;;10.20;;
57105;SDS011;62662;56.788;23.942;2022-11-27T04:20:15;15.98;;;8.95;;
57105;SDS011;62662;56.788;23.942;2022-11-27T04:22:42;14.40;;;9.52;;
57105;SDS011;62662;56.788;23.942;2022-11-27T04:25:09;15.23;;;9.35;;
57105;SDS011;62662;56.788;23.942;2022-11-27T04:27:36;16.83;;;9.60;;
57105;SDS011;62662;56.788;23.942;2022-11-27T04:30:03;15.43;;;9.13;;
57105;SDS011;62662;56.788;23.942;2022-11-27T04:32:30;21.10;;;12.60;;
57105;SDS011;62662;56.788;23.942;2022-11-27T04:34:57;23.42;;;12.13;;
57105;SDS011;62662;56.788;23.942;2022-11-27T04:37:24;21.05;;;12.30;;
57105;SDS011;62662;56.788;23.942;2022-11-27T04:39:51;38.67;;;23.55;;
57105;SDS011;62662;56.788;23.942;2022-11-27T04:42:18;25.35;;;15.63;;
57105;SDS011;62662;56.788;23.942;2022-11-27T04:44:45;42.92;;;30.73;;
57105;SDS011;62662;56.788;23.942;2022-11-27T04:47:12;24.08;;;17.20;;
57105;SDS011;62662;56.788;23.942;2022-11-27T04:49:39;18.40;;;10.52;;
57105;SDS011;62662;56.788;23.942;2022-11-27T04:52:06;13.77;;;9.75;;
57105;SDS011;62662;56.788;23.942;2022-11-27T04:54:33;16.55;;;10.13;;
57105;SDS011;62662;56.788;23.942;2022-11-27T04:57:01;16.17;;;10.27;;
57105;SDS011;62662;56.788;23.942;2022-11-27T04:59:28;18.75;;;10.75;;
57105;SDS011;62662;56.788;23.942;2022-11-27T05:01:55;18.67;;;10.80;;
57105;SDS011;62662;56.788;23.942;2022-11-27T05:04:22;17.88;;;10.38;;
57105;SDS011;62662;56.788;23.942;2022-11-27T05:06:49;14.18;;;9.13;;
57105;SDS011;62662;56.788;23.942;2022-11-27T05:09:16;14.35;;;9.32;;
57105;SDS011;62662;56.788;23.942;2022-11-27T05:11:43;14.88;;;8.57;;
57105;SDS011;62662;56.788;23.942;2022-11-27T05:14:10;13.20;;;8.88;;
57105;SDS011;62662;56.788;23.942;2022-11-27T05:16:40;16.23;;;9.25;;
57105;SDS011;62662;56.788;23.942;2022-11-27T05:19:11;18.30;;;9.75;;
57105;SDS011;62662;56.788;23.942;2022-11-27T05:21:40;19.00;;;10.70;;
57105;SDS011;62662;56.788;23.942;2022-11-27T05:24:07;17.35;;;9.77;;
57105;SDS011;62662;56.788;23.942;2022-11-27T05:26:37;17.73;;;10.50;;
57105;SDS011;62662;56.788;23.942;2022-11-27T05:29:05;14.23;;;9.30;;
57105;SDS011;62662;56.788;23.942;2022-11-27T05:31:33;15.18;;;9.25;;
57105;SDS011;62662;56.788;23.942;2022-11-27T05:34:00;15.70;;;9.38;;
57105;SDS011;62662;56.788;23.942;2022-11-27T05:36:27;13.93;;;8.38;;
57105;SDS011;62662;56.788;23.942;2022-11-27T05:38:55;14.45;;;9.38;;
57105;SDS011;62662;56.788;23.942;2022-11-27T05:41:22;13.25;;;8.38;;
57105;SDS011;62662;56.788;23.942;2022-11-27T05:43:49;12.15;;;8.88;;
57105;SDS011;62662;56.788;23.942;2022-11-27T05:46:16;15.35;;;9.13;;
57105;SDS011;62662;56.788;23.942;2022-11-27T05:48:45;14.63;;;9.02;;
57105;SDS011;62662;56.788;23.942;2022-11-27T05:51:13;12.82;;;8.77;;
57105;SDS011;62662;56.788;23.942;2022-11-27T05:53:41;13.20;;;8.30;;
57105;SDS011;62662;56.788;23.942;2022-11-27T05:56:12;13.93;;;8.23;;
57105;SDS011;62662;56.788;23.942;2022-11-27T05:58:41;12.57;;;8.23;;
57105;SDS011;62662;56.788;23.942;2022-11-27T06:01:10;15.35;;;8.23;;
57105;SDS011;62662;56.788;23.942;2022-11-27T06:03:38;15.85;;;9.27;;
57105;SDS011;62662;56.788;23.942;2022-11-27T06:06:09;15.07;;;9.90;;
57105;SDS011;62662;56.788;23.942;2022-11-27T06:08:40;19.02;;;11.43;;
57105;SDS011;62662;56.788;23.942;2022-11-27T06:11:12;17.10;;;11.18;;
57105;SDS011;62662;56.788;23.942;2022-11-27T06:13:45;17.35;;;11.20;;
57105;SDS011;62662;56.788;23.942;2022-11-27T06:16:16;14.10;;;9.70;;
57105;SDS011;62662;56.788;23.942;2022-11-27T06:18:47;15.10;;;9.80;;
57105;SDS011;62662;56.788;23.942;2022-11-27T06:21:16;15.23;;;10.10;;
57105;SDS011;62662;56.788;23.942;2022-11-27T06:23:44;14.93;;;9.40;;
57105;SDS011;62662;56.788;23.942;2022-11-27T06:26:16;13.18;;;9.18;;
57105;SDS011;62662;56.788;23.942;2022-11-27T06:28:45;13.40;;;9.13;;
57105;SDS011;62662;56.788;23.942;2022-11-27T06:31:14;15.10;;;9.18;;
57105;SDS011;62662;56.788;23.942;2022-11-27T06:33:44;12.32;;;8.85;;
57105;SDS011;62662;56.788;23.942;2022-11-27T06:36:12;13.63;;;9.25;;
57105;SDS011;62662;56.788;23.942;2022-11-27T06:38:40;16.15;;;9.20;;
57105;SDS011;62662;56.788;23.942;2022-11-27T06:41:11;12.90;;;8.52;;
57105;SDS011;62662;56.788;23.942;2022-11-27T06:43:41;13.63;;;8.45;;
57105;SDS011;62662;56.788;23.942;2022-11-27T06:46:11;14.27;;;8.15;;
57105;SDS011;62662;56.788;23.942;2022-11-27T06:48:42;16.23;;;9.07;;
57105;SDS011;62662;56.788;23.942;2022-11-27T06:51:11;14.05;;;8.40;;
57105;SDS011;62662;56.788;23.942;2022-11-27T06:53:41;14.60;;;9.23;;
57105;SDS011;62662;56.788;23.942;2022-11-27T06:56:10;13.40;;;8.68;;
57105;SDS011;62662;56.788;23.942;2022-11-27T06:58:40;14.15;;;9.18;;
57105;SDS011;62662;56.788;23.942;2022-11-27T07:01:11;13.45;;;8.55;;
57105;SDS011;62662;56.788;23.942;2022-11-27T07:03:40;13.23;;;8.90;;
57105;SDS011;62662;56.788;23.942;2022-11-27T07:06:10;14.68;;;8.50;;
57105;SDS011;62662;56.788;23.942;2022-11-27T07:08:40;13.68;;;8.32;;
57105;SDS011;62662;56.788;23.942;2022-11-27T07:11:09;13.15;;;8.45;;
57105;SDS011;62662;56.788;23.942;2022-11-27T07:13:40;13.70;;;8.50;;
57105;SDS011;62662;56.788;23.942;2022-11-27T07:16:08;13.43;;;9.07;;
57105;SDS011;62662;56.788;23.942;2022-11-27T07:18:39;15.23;;;8.35;;
57105;SDS011;62662;56.788;23.942;2022-11-27T07:21:10;13.40;;;8.85;;
57105;SDS011;62662;56.788;23.942;2022-11-27T07:23:38;14.05;;;8.82;;
57105;SDS011;62662;56.788;23.942;2022-11-27T07:26:06;11.15;;;7.78;;
57105;SDS011;62662;56.788;23.942;2022-11-27T07:28:36;13.55;;;8.07;;
57105;SDS011;62662;56.788;23.942;2022-11-27T07:31:04;15.90;;;8.98;;
57105;SDS011;62662;56.788;23.942;2022-11-27T07:33:31;14.48;;;9.60;;
57105;SDS011;62662;56.788;23.942;2022-11-27T07:35:59;15.25;;;8.80;;
57105;SDS011;62662;56.788;23.942;2022-11-27T07:38:28;15.02;;;9.15;;
57105;SDS011;62662;56.788;23.942;2022-11-27T07:40:59;13.55;;;9.00;;
57105;SDS011;62662;56.788;23.942;2022-11-27T07:43:30;11.82;;;8.43;;
57105;SDS011;62662;56.788;23.942;2022-11-27T07:46:02;13.00;;;8.35;;
57105;SDS011;62662;56.788;23.942;2022-11-27T07:48:30;15.38;;;8.55;;
57105;SDS011;62662;56.788;23.942;2022-11-27T07:50:57;12.35;;;8.63;;
57105;SDS011;62662;56.788;23.942;2022-11-27T07:53:25;11.57;;;8.40;;
57105;SDS011;62662;56.788;23.942;2022-11-27T07:55:52;18.17;;;9.23;;
57105;SDS011;62662;56.788;23.942;2022-11-27T07:58:20;12.45;;;8.93;;
57105;SDS011;62662;56.788;23.942;2022-11-27T08:00:49;14.50;;;8.95;;
57105;SDS011;62662;56.788;23.942;2022-11-27T08:03:16;14.07;;;9.38;;
57105;SDS011;62662;56.788;23.942;2022-11-27T08:05:43;14.48;;;10.35;;
57105;SDS011;62662;56.788;23.942;2022-11-27T08:08:12;14.38;;;9.60;;
57105;SDS011;62662;56.788;23.942;2022-11-27T08:10:39;17.23;;;10.25;;
57105;SDS011;62662;56.788;23.942;2022-11-27T08:13:07;16.00;;;10.27;;
57105;SDS011;62662;56.788;23.942;2022-11-27T08:15:35;12.98;;;9.75;;
57105;SDS011;62662;56.788;23.942;2022-11-27T08:18:02;13.20;;;8.75;;
57105;SDS011;62662;56.788;23.942;2022-11-27T08:20:31;12.60;;;7.80;;
57105;SDS011;62662;56.788;23.942;2022-11-27T08:22:58;13.43;;;8.38;;
57105;SDS011;62662;56.788;23.942;2022-11-27T08:25:28;13.73;;;9.02;;
57105;SDS011;62662;56.788;23.942;2022-11-27T08:27:57;12.75;;;8.30;;
57105;SDS011;62662;56.788;23.942;2022-11-27T08:30:24;11.45;;;8.05;;
57105;SDS011;62662;56.788;23.942;2022-11-27T08:32:57;14.77;;;8.65;;
57105;SDS011;62662;56.788;23.942;2022-11-27T08:35:24;14.63;;;8.73;;
57105;SDS011;62662;56.788;23.942;2022-11-27T08:37:52;12.80;;;8.27;;
57105;SDS011;62662;56.788;23.942;2022-11-27T08:40:20;12.15;;;7.97;;
57105;SDS011;62662;56.788;23.942;2022-11-27T08:42:49;13.30;;;8.30;;
57105;SDS011;62662;56.788;23.942;2022-11-27T08:45:16;13.13;;;8.27;;
57105;SDS011;62662;56.788;23.942;2022-11-27T08:47:43;14.57;;;8.15;;
57105;SDS011;62662;56.788;23.942;2022-11-27T08:50:11;13.02;;;7.97;;
57105;SDS011;62662;56.788;23.942;2022-11-27T08:52:38;19.42;;;9.25;;
57105;SDS011;62662;56.788;23.942;2022-11-27T08:55:06;16.05;;;9.68;;
57105;SDS011;62662;56.788;23.942;2022-11-27T08:57:34;14.68;;;8.93;;
57105;SDS011;62662;56.788;23.942;2022-11-27T09:00:02;15.80;;;9.77;;
57105;SDS011;62662;56.788;23.942;2022-11-27T09:02:31;13.63;;;8.05;;
57105;SDS011;62662;56.788;23.942;2022-11-27T09:05:00;16.77;;;9.43;;
57105;SDS011;62662;56.788;23.942;2022-11-27T09:07:28;16.35;;;9.48;;
57105;SDS011;62662;56.788;23.942;2022-11-27T09:09:55;18.67;;;9.23;;
57105;SDS011;62662;56.788;23.942;2022-11-27T09:12:22;19.25;;;10.00;;
57105;SDS011;62662;56.788;23.942;2022-11-27T09:14:49;19.65;;;10.55;;
57105;SDS011;62662;56.788;23.942;2022-11-27T09:17:16;14.63;;;9.65;;
57105;SDS011;62662;56.788;23.942;2022-11-27T09:19:44;18.55;;;10.63;;
57105;SDS011;62662;56.788;23.942;2022-11-27T09:22:12;18.08;;;10.25;;
57105;SDS011;62662;56.788;23.942;2022-11-27T09:24:39;17.45;;;10.77;;
57105;SDS011;62662;56.788;23.942;2022-11-27T09:27:06;18.13;;;9.77;;
57105;SDS011;62662;56.788;23.942;2022-11-27T09:29:34;14.10;;;8.85;;
57105;SDS011;62662;56.788;23.942;2022-11-27T09:32:02;15.88;;;9.38;;
57105;SDS011;62662;56.788;23.942;2022-11-27T09:34:29;17.95;;;11.25;;
57105;SDS011;62662;56.788;23.942;2022-11-27T09:37:07;16.50;;;10.30;;
57105;SDS011;62662;56.788;23.942;2022-11-27T09:39:35;16.95;;;10.20;;
57105;SDS011;62662;56.788;23.942;2022-11-27T09:42:03;14.35;;;10.00;;
57105;SDS011;62662;56.788;23.942;2022-11-27T09:47:29;17.55;;;11.02;;
57105;SDS011;62662;56.788;23.942;2022-11-27T09:50:06;19.60;;;10.82;;
57105;SDS011;62662;56.788;23.942;2022-11-27T09:52:47;19.15;;;11.32;;
57105;SDS011;62662;56.788;23.942;2022-11-27T09:55:35;17.98;;;11.38;;
57105;SDS011;62662;56.788;23.942;2022-11-27T10:00:44;17.48;;;10.70;;
57105;SDS011;62662;56.788;23.942;2022-11-27T10:03:12;20.92;;;11.18;;
57105;SDS011;62662;56.788;23.942;2022-11-27T10:17:09;15.02;;;9.88;;
57105;SDS011;62662;56.788;23.942;2022-11-27T10:22:48;14.35;;;9.85;;
57105;SDS011;62662;56.788;23.942;2022-11-27T10:25:18;17.58;;;10.93;;
57105;SDS011;62662;56.788;23.942;2022-11-27T10:30:20;17.73;;;10.50;;
57105;SDS011;62662;56.788;23.942;2022-11-27T10:32:49;17.48;;;10.73;;
57105;SDS011;62662;56.788;23.942;2022-11-27T10:35:25;20.88;;;11.77;;
57105;SDS011;62662;56.788;23.942;2022-11-27T10:37:57;21.02;;;10.63;;
57105;SDS011;62662;56.788;23.942;2022-11-27T10:45:43;15.43;;;10.23;;
57105;SDS011;62662;56.788;23.942;2022-11-27T10:48:18;16.33;;;10.20;;
57105;SDS011;62662;56.788;23.942;2022-11-27T10:50:46;16.70;;;10.85;;
57105;SDS011;62662;56.788;23.942;2022-11-27T10:58:55;16.83;;;10.30;;
57105;SDS011;62662;56.788;23.942;2022-11-27T11:01:39;14.77;;;10.13;;
57105;SDS011;62662;56.788;23.942;2022-11-27T11:04:09;16.27;;;10.40;;
57105;SDS011;62662;56.788;23.942;2022-11-27T11:06:58;14.27;;;9.63;;
57105;SDS011;62662;56.788;23.942;2022-11-27T11:09:27;14.13;;;9.18;;
57105;SDS011;62662;56.788;23.942;2022-11-27T11:14:57;17.77;;;10.60;;
57105;SDS011;62662;56.788;23.942;2022-11-27T11:17:32;14.77;;;9.65;;
57105;SDS011;62662;56.788;23.942;2022-11-27T11:20:00;14.23;;;9.65;;
57105;SDS011;62662;56.788;23.942;2022-11-27T11:22:43;16.17;;;10.35;;
57105;SDS011;62662;56.788;23.942;2022-11-27T11:25:15;20.60;;;10.68;;
57105;SDS011;62662;56.788;23.942;2022-11-27T11:27:44;17.30;;;10.57;;
57105;SDS011;62662;56.788;23.942;2022-11-27T11:30:19;18.15;;;11.50;;
57105;SDS011;62662;56.788;23.942;2022-11-27T11:33:00;17.95;;;10.43;;
57105;SDS011;62662;56.788;23.942;2022-11-27T11:35:32;20.52;;;12.02;;
57105;SDS011;62662;56.788;23.942;2022-11-27T11:38:04;21.48;;;12.45;;
57105;SDS011;62662;56.788;23.942;2022-11-27T11:40:41;20.17;;;11.77;;
57105;SDS011;62662;56.788;23.942;2022-11-27T11:43:25;19.52;;;12.07;;
57105;SDS011;62662;56.788;23.942;2022-11-27T11:46:01;18.58;;;11.57;;
57105;SDS011;62662;56.788;23.942;2022-11-27T11:49:01;24.13;;;14.23;;
57105;SDS011;62662;56.788;23.942;2022-11-27T11:52:03;30.20;;;16.30;;
57105;SDS011;62662;56.788;23.942;2022-11-27T11:54:49;25.83;;;12.85;;
57105;SDS011;62662;56.788;23.942;2022-11-27T12:00:33;20.50;;;11.35;;
57105;SDS011;62662;56.788;23.942;2022-11-27T12:09:11;23.70;;;13.60;;
57105;SDS011;62662;56.788;23.942;2022-11-27T12:11:42;20.10;;;11.82;;
57105;SDS011;62662;56.788;23.942;2022-11-27T12:14:38;21.38;;;12.48;;
57105;SDS011;62662;56.788;23.942;2022-11-27T12:17:26;17.92;;;11.45;;
57105;SDS011;62662;56.788;23.942;2022-11-27T12:26:19;21.58;;;12.98;;
57105;SDS011;62662;56.788;23.942;2022-11-27T12:31:54;24.92;;;15.95;;
57105;SDS011;62662;56.788;23.942;2022-11-27T12:40:36;23.83;;;14.07;;
57105;SDS011;62662;56.788;23.942;2022-11-27T12:45:42;23.17;;;14.40;;
57105;SDS011;62662;56.788;23.942;2022-11-27T12:48:20;20.25;;;14.48;;
57105;SDS011;62662;56.788;23.942;2022-11-27T12:54:29;22.17;;;14.23;;
57105;SDS011;62662;56.788;23.942;2022-11-27T12:57:07;21.38;;;13.43;;
57105;SDS011;62662;56.788;23.942;2022-11-27T12:59:41;23.23;;;13.77;;
57105;SDS011;62662;56.788;23.942;2022-11-27T13:02:27;23.13;;;14.00;;
57105;SDS011;62662;56.788;23.942;2022-11-27T13:05:03;23.88;;;14.07;;
57105;SDS011;62662;56.788;23.942;2022-11-27T13:07:39;25.50;;;15.18;;
57105;SDS011;62662;56.788;23.942;2022-11-27T13:10:26;25.35;;;14.50;;
57105;SDS011;62662;56.788;23.942;2022-11-27T13:13:08;25.80;;;14.27;;
57105;SDS011;62662;56.788;23.942;2022-11-27T13:15:51;28.20;;;17.02;;
57105;SDS011;62662;56.788;23.942;2022-11-27T13:18:38;28.13;;;16.75;;
57105;SDS011;62662;56.788;23.942;2022-11-27T13:21:14;26.67;;;15.93;;
57105;SDS011;62662;56.788;23.942;2022-11-27T13:23:51;32.33;;;17.98;;
57105;SDS011;62662;56.788;23.942;2022-11-27T13:26:21;30.85;;;16.55;;
57105;SDS011;62662;56.788;23.942;2022-11-27T13:31:59;28.57;;;17.93;;
57105;SDS011;62662;56.788;23.942;2022-11-27T13:34:30;31.83;;;16.67;;
57105;SDS011;62662;56.788;23.942;2022-11-27T13:36:59;32.47;;;18.15;;
57105;SDS011;62662;56.788;23.942;2022-11-27T13:39:36;30.83;;;17.95;;
57105;SDS011;62662;56.788;23.942;2022-11-27T13:42:08;32.75;;;17.92;;
57105;SDS011;62662;56.788;23.942;2022-11-27T13:44:58;31.48;;;18.33;;
57105;SDS011;62662;56.788;23.942;2022-11-27T13:47:45;29.90;;;17.95;;
57105;SDS011;62662;56.788;23.942;2022-11-27T13:50:14;33.95;;;17.80;;
57105;SDS011;62662;56.788;23.942;2022-11-27T13:55:33;36.08;;;19.20;;
57105;SDS011;62662;56.788;23.942;2022-11-27T13:58:02;37.47;;;20.13;;
57105;SDS011;62662;56.788;23.942;2022-11-27T14:00:35;34.67;;;20.48;;
57105;SDS011;62662;56.788;23.942;2022-11-27T14:05:47;44.83;;;19.85;;
57105;SDS011;62662;56.788;23.942;2022-11-27T14:08:30;31.75;;;18.17;;
57105;SDS011;62662;56.788;23.942;2022-11-27T14:11:04;39.77;;;19.27;;
57105;SDS011;62662;56.788;23.942;2022-11-27T14:13:36;37.50;;;19.23;;
57105;SDS011;62662;56.788;23.942;2022-11-27T14:16:27;33.30;;;19.63;;
57105;SDS011;62662;56.788;23.942;2022-11-27T14:18:59;35.65;;;18.98;;
57105;SDS011;62662;56.788;23.942;2022-11-27T14:24:01;37.33;;;18.55;;
57105;SDS011;62662;56.788;23.942;2022-11-27T14:26:32;35.78;;;18.05;;
57105;SDS011;62662;56.788;23.942;2022-11-27T14:28:59;35.28;;;18.48;;
57105;SDS011;62662;56.788;23.942;2022-11-27T14:31:30;30.58;;;17.30;;
57105;SDS011;62662;56.788;23.942;2022-11-27T14:33:58;36.53;;;18.98;;
57105;SDS011;62662;56.788;23.942;2022-11-27T14:36:50;40.88;;;21.05;;
57105;SDS011;62662;56.788;23.942;2022-11-27T14:39:22;41.05;;;20.80;;
57105;SDS011;62662;56.788;23.942;2022-11-27T14:42:01;39.83;;;19.92;;
57105;SDS011;62662;56.788;23.942;2022-11-27T14:44:31;37.25;;;19.08;;
57105;SDS011;62662;56.788;23.942;2022-11-27T14:47:03;38.22;;;21.27;;
57105;SDS011;62662;56.788;23.942;2022-11-27T14:49:32;43.08;;;22.58;;
57105;SDS011;62662;56.788;23.942;2022-11-27T14:52:03;42.63;;;20.77;;
57105;SDS011;62662;56.788;23.942;2022-11-27T14:54:35;33.38;;;18.35;;
57105;SDS011;62662;56.788;23.942;2022-11-27T14:57:06;31.10;;;18.23;;
57105;SDS011;62662;56.788;23.942;2022-11-27T14:59:58;40.53;;;19.42;;
57105;SDS011;62662;56.788;23.942;2022-11-27T15:02:46;30.90;;;17.88;;
57105;SDS011;62662;56.788;23.942;2022-11-27T15:05:26;28.17;;;16.23;;
57105;SDS011;62662;56.788;23.942;2022-11-27T15:07:57;29.33;;;15.90;;
57105;SDS011;62662;56.788;23.942;2022-11-27T15:10:35;21.77;;;13.68;;
57105;SDS011;62662;56.788;23.942;2022-11-27T15:13:30;29.00;;;16.30;;
57105;SDS011;62662;56.788;23.942;2022-11-27T15:16:05;33.97;;;18.00;;
57105;SDS011;62662;56.788;23.942;2022-11-27T15:18:39;28.48;;;15.02;;
57105;SDS011;62662;56.788;23.942;2022-11-27T15:21:11;30.10;;;13.55;;
57105;SDS011;62662;56.788;23.942;2022-11-27T15:23:45;31.75;;;17.13;;
57105;SDS011;62662;56.788;23.942;2022-11-27T15:26:33;32.60;;;18.45;;
57105;SDS011;62662;56.788;23.942;2022-11-27T15:29:03;35.63;;;20.98;;
57105;SDS011;62662;56.788;23.942;2022-11-27T15:31:50;39.72;;;20.10;;
57105;SDS011;62662;56.788;23.942;2022-11-27T15:34:20;31.13;;;17.90;;
57105;SDS011;62662;56.788;23.942;2022-11-27T15:36:58;38.83;;;19.63;;
57105;SDS011;62662;56.788;23.942;2022-11-27T15:39:44;38.22;;;21.15;;
57105;SDS011;62662;56.788;23.942;2022-11-27T15:42:14;41.15;;;21.77;;
57105;SDS011;62662;56.788;23.942;2022-11-27T15:44:43;44.33;;;20.98;;
57105;SDS011;62662;56.788;23.942;2022-11-27T15:49:52;38.92;;;18.67;;
57105;SDS011;62662;56.788;23.942;2022-11-27T15:52:20;45.03;;;21.52;;
57105;SDS011;62662;56.788;23.942;2022-11-27T15:54:48;42.28;;;20.52;;
57105;SDS011;62662;56.788;23.942;2022-11-27T15:57:16;40.33;;;21.67;;
57105;SDS011;62662;56.788;23.942;2022-11-27T15:59:44;38.85;;;20.70;;
57105;SDS011;62662;56.788;23.942;2022-11-27T16:02:11;34.10;;;18.70;;
57105;SDS011;62662;56.788;23.942;2022-11-27T16:04:43;37.65;;;20.20;;
57105;SDS011;62662;56.788;23.942;2022-11-27T16:07:11;39.83;;;20.45;;
57105;SDS011;62662;56.788;23.942;2022-11-27T16:09:38;38.55;;;20.52;;
57105;SDS011;62662;56.788;23.942;2022-11-27T16:12:06;46.65;;;22.65;;
57105;SDS011;62662;56.788;23.942;2022-11-27T16:14:33;41.75;;;19.80;;
57105;SDS011;62662;56.788;23.942;2022-11-27T16:17:02;34.28;;;17.98;;
57105;SDS011;62662;56.788;23.942;2022-11-27T16:19:30;33.45;;;18.38;;
57105;SDS011;62662;56.788;23.942;2022-11-27T16:21:58;37.55;;;21.55;;
57105;SDS011;62662;56.788;23.942;2022-11-27T16:24:34;34.58;;;19.73;;
57105;SDS011;62662;56.788;23.942;2022-11-27T16:27:06;28.50;;;16.60;;
57105;SDS011;62662;56.788;23.942;2022-11-27T16:29:33;29.92;;;17.17;;
57105;SDS011;62662;56.788;23.942;2022-11-27T16:32:01;32.15;;;16.02;;
57105;SDS011;62662;56.788;23.942;2022-11-27T16:34:29;33.50;;;16.85;;
57105;SDS011;62662;56.788;23.942;2022-11-27T16:36:56;33.47;;;16.60;;
57105;SDS011;62662;56.788;23.942;2022-11-27T16:39:23;28.58;;;15.77;;
57105;SDS011;62662;56.788;23.942;2022-11-27T16:41:53;29.38;;;16.40;;
57105;SDS011;62662;56.788;23.942;2022-11-27T16:44:25;33.63;;;17.63;;